M I D A S
Marine Information and Data Acquisition System
Tripno 2222 of the Zeeleeuw from 2011-12-12 08:06:00 to 2011-12-12 15:59:30
Back to CruiseResearch ActivitiesStationsMapUnderway DataData graphs

EquipmentUnitsComment
TimeDGPSUTC
LatitudeDGPSDM.mWGS84
LongitudeDGPSDM.mWGS84
HeadingGyrodeg 
SOGDGPSknotsSpeed over ground
COGDGPSdegCourse over ground
DepthEcho soundermeters200 kHz
Missing or incorrect values are displayed as -999
Navigation data collected by the RV Zeeleeuw from 2011-12-12 08:09:47 to 2011-12-12 16:17:40
Time Latitude Longitude Heading SOG COG Depth
2011-12-12 08:10:52 51°15.598 2°53.724 322.7 11.4 319 11.3
2011-12-12 08:11:52 51°15.744 2°53.541 327.9 10.8 326 12.3
2011-12-12 08:12:52 51°15.897 2°53.375 330 11.1 325 12
2011-12-12 08:13:52 51°16.054 2°53.216 335.4 10.7 333 11.4
2011-12-12 08:14:52 51°16.212 2°53.078 334.2 11 329 12.3
2011-12-12 08:15:52 51°16.368 2°52.938 335.1 10.5 330 11.8
2011-12-12 08:16:52 51°16.528 2°52.805 340 10.8 337 11.6
2011-12-12 08:17:52 51°16.697 2°52.711 343.7 10.7 340 10.1
2011-12-12 08:18:52 51°16.863 2°52.62 344.2 10.4 340 9.5
2011-12-12 08:19:52 51°17.025 2°52.524 343.7 10.3 340 10
2011-12-12 08:20:52 51°17.187 2°52.431 345.2 10.3 341 10.3
2011-12-12 08:21:52 51°17.348 2°52.336 340.5 10.3 335 10.2
2011-12-12 08:22:53 51°17.503 2°52.2 335.8 9.9 332 -999
2011-12-12 08:23:56 51°17.653 2°52.079 336.8 10.1 331 11.1
2011-12-12 08:24:54 51°17.797 2°51.95 336.1 10.5 330 9.9
2011-12-12 08:25:53 51°17.951 2°51.818 336.9 10.7 333 9.8
2011-12-12 08:26:52 51°18.107 2°51.687 337.2 11 331 11
2011-12-12 08:27:52 51°18.267 2°51.551 336.5 11 330 12
2011-12-12 08:28:52 51°18.425 2°51.41 338.2 10.7 331 12.7
2011-12-12 08:29:54 51°18.585 2°51.275 337.8 10 334 13.9
2011-12-12 08:30:55 51°18.736 2°51.15 338 10.4 333 14
2011-12-12 08:31:54 51°18.889 2°51.012 336.3 10.9 331 15.5
2011-12-12 08:32:56 51°19.044 2°50.882 337.7 10.2 332 15.7
2011-12-12 08:33:54 51°19.194 2°50.747 336.9 11 331 14
2011-12-12 08:34:52 51°19.347 2°50.612 335.4 10.8 333 12.2
2011-12-12 08:35:52 51°19.505 2°50.479 338.7 11 332 11.9
2011-12-12 08:36:52 51°19.668 2°50.329 335.2 11.5 330 12.8
2011-12-12 08:37:52 51°19.838 2°50.195 340.5 11.1 336 13.7
2011-12-12 08:38:53 51°20.009 2°50.074 342.3 10.6 336 -999
2011-12-12 08:39:52 51°20.166 2°49.95 339.3 10.8 335 17.2
2011-12-12 08:40:54 51°20.33 2°49.819 340.1 10.7 333 20.4
2011-12-12 08:41:53 51°20.489 2°49.692 339.8 10.9 334 21.3
2011-12-12 08:42:52 51°20.65 2°49.562 341 11.2 331 23.7
2011-12-12 08:43:53 51°20.814 2°49.428 340.3 10.9 332 22.6
2011-12-12 08:44:52 51°20.978 2°49.297 341.3 11.3 333 22.5
2011-12-12 08:45:52 51°21.141 2°49.168 339.4 11.1 333 22.5
2011-12-12 08:46:52 51°21.307 2°49.033 340 11.2 334 22.1
2011-12-12 08:47:52 51°21.471 2°48.912 341.4 10.8 336 21.4
2011-12-12 08:48:53 51°21.635 2°48.779 338.2 11.2 332 23.1
2011-12-12 08:49:54 51°21.803 2°48.644 340.6 10.9 335 23.7
2011-12-12 08:50:54 51°21.967 2°48.528 341.4 11.3 335 23.7
2011-12-12 08:51:52 51°22.131 2°48.403 339 11 335 23.2
2011-12-12 08:52:52 51°22.299 2°48.277 340.4 11.4 333 21.1
2011-12-12 08:53:56 51°22.468 2°48.146 339.7 10.6 335 17.8
2011-12-12 08:54:54 51°22.627 2°48.028 341.8 10.8 335 16.9
2011-12-12 08:55:53 51°22.784 2°47.901 339.8 11 331 16
2011-12-12 08:56:52 51°22.947 2°47.769 340.7 11.1 335 18.6
2011-12-12 08:57:53 51°23.123 2°47.649 344.8 11.3 340 21.6
2011-12-12 08:58:52 51°23.289 2°47.543 342.2 11.1 337 22
2011-12-12 08:59:52 51°23.459 2°47.429 343.6 11.2 337 21.2
2011-12-12 09:00:52 51°23.631 2°47.307 343 11.4 335 19.7
2011-12-12 09:01:52 51°23.802 2°47.192 344.3 10.5 336 23.1
2011-12-12 09:02:52 51°23.97 2°47.08 342.7 11.3 338 26.6
2011-12-12 09:03:52 51°24.14 2°46.969 345.6 10.9 335 28.6
2011-12-12 09:04:52 51°24.308 2°46.849 342 11.1 335 28.5
2011-12-12 09:05:52 51°24.48 2°46.733 343.9 11.3 336 29.5
2011-12-12 09:06:52 51°24.648 2°46.62 343.4 11 337 27.9
2011-12-12 09:07:52 51°24.817 2°46.512 344.6 10.9 339 25.5
2011-12-12 09:08:52 51°24.988 2°46.4 343.2 11 337 24.1
2011-12-12 09:09:53 51°25.159 2°46.288 343.4 10.7 336 24.4
2011-12-12 09:10:52 51°25.325 2°46.18 344.5 11.2 339 25.7
2011-12-12 09:11:52 51°25.496 2°46.073 343.4 10.9 339 24.4
2011-12-12 09:12:52 51°25.664 2°45.963 343.6 11.1 338 23.3
2011-12-12 09:13:52 51°25.833 2°45.86 343.4 11 338 24.8
2011-12-12 09:14:52 51°26.004 2°45.756 343.4 10.9 337 25.6
2011-12-12 09:15:53 51°26.177 2°45.639 341.9 10.9 336 26.6
2011-12-12 09:16:54 51°26.344 2°45.53 343.7 10.1 338 -999
2011-12-12 09:17:52 51°26.506 2°45.42 342.7 10.8 337 28.2
2011-12-12 09:18:52 51°26.675 2°45.312 343.1 11 337 28
2011-12-12 09:19:52 51°26.843 2°45.187 339.8 11.3 335 28.5
2011-12-12 09:20:53 51°27.015 2°45.059 342.4 10.9 335 30.4
2011-12-12 09:21:54 51°27.184 2°44.942 343.8 10.6 334 27.3
2011-12-12 09:22:53 51°27.346 2°44.831 341.3 11.2 337 28.1
2011-12-12 09:23:54 51°27.52 2°44.709 340.3 11.1 335 25.5
2011-12-12 09:24:53 51°27.689 2°44.589 340.4 11.2 337 26.9
2011-12-12 09:25:52 51°27.857 2°44.471 341.6 11.4 336 26.5
2011-12-12 09:26:52 51°28.027 2°44.348 340.8 11.3 338 28.7
2011-12-12 09:27:52 51°28.199 2°44.234 342.2 10.9 335 28.5
2011-12-12 09:28:52 51°28.368 2°44.117 339.5 11.2 336 31.5
2011-12-12 09:29:52 51°28.537 2°43.998 342 11.1 337 30.7
2011-12-12 09:30:53 51°28.707 2°43.886 342.2 10.5 337 30.2
2011-12-12 09:31:52 51°28.871 2°43.774 339.9 11.2 338 29.7
2011-12-12 09:32:52 51°29.041 2°43.658 339.4 11 336 28.1
2011-12-12 09:33:53 51°29.211 2°43.537 342.4 10.2 342 -999
2011-12-12 09:34:52 51°29.373 2°43.425 341.1 11 335 31
2011-12-12 09:35:52 51°29.544 2°43.31 342.6 11 336 30.7
2011-12-12 09:36:52 51°29.718 2°43.288 14.1 10.7 12 30.5
2011-12-12 09:37:52 51°29.891 2°43.367 18 10.7 10 32.4
2011-12-12 09:38:52 51°30.06 2°43.451 19.8 10.9 19 32.1
2011-12-12 09:39:52 51°30.231 2°43.525 16 10.7 15 33.6
2011-12-12 09:40:52 51°30.401 2°43.608 18.6 10.6 23 33.5
2011-12-12 09:41:52 51°30.569 2°43.695 19.1 10.9 20 33.4
2011-12-12 09:42:52 51°30.74 2°43.778 19.5 10.6 17 31
2011-12-12 09:43:52 51°30.91 2°43.867 20.2 10.8 13 35.1
2011-12-12 09:44:52 51°31.082 2°43.948 21.2 10.8 16 32.8
2011-12-12 09:45:52 51°31.253 2°44.035 19 10.8 18 32.8
2011-12-12 09:46:52 51°31.426 2°44.117 18.8 10.8 18 34.8
2011-12-12 09:47:52 51°31.596 2°44.204 20.2 11 16 32.8
2011-12-12 09:48:52 51°31.766 2°44.287 19.3 10.6 22 33.5
2011-12-12 09:49:52 51°31.936 2°44.373 20.7 10.7 20 35.2
2011-12-12 09:50:52 51°32.103 2°44.459 17.5 10.3 18 34.9
2011-12-12 09:51:52 51°32.275 2°44.534 16.2 10.4 16 33.8
2011-12-12 09:52:52 51°32.445 2°44.614 16.8 10.6 22 33.8
2011-12-12 09:53:52 51°32.614 2°44.694 21.1 10.8 19 30.8
2011-12-12 09:54:52 51°32.783 2°44.788 20.7 11 18 30.9
2011-12-12 09:55:52 51°32.954 2°44.873 17.9 10.9 18 31.7
2011-12-12 09:56:52 51°33.126 2°44.958 19.2 10.7 23 31.2
2011-12-12 09:57:52 51°33.297 2°45.04 18.5 11 16 29.6
2011-12-12 09:58:52 51°33.468 2°45.126 19.9 10.7 18 30.9
2011-12-12 09:59:52 51°33.637 2°45.214 18.8 10.6 20 29.2
2011-12-12 10:00:52 51°33.807 2°45.296 19.7 10.9 22 30.1
2011-12-12 10:01:52 51°33.976 2°45.375 19 10.7 18 29
2011-12-12 10:02:53 51°34.149 2°45.463 20.3 10.5 19 29.5
2011-12-12 10:03:52 51°34.316 2°45.544 17.6 10.7 20 28.9
2011-12-12 10:04:52 51°34.487 2°45.626 18.8 10.7 18 26.5
2011-12-12 10:05:52 51°34.659 2°45.709 16.8 10.7 15 24.2
2011-12-12 10:06:52 51°34.831 2°45.786 19.6 10.8 14 21
2011-12-12 10:07:52 51°35.003 2°45.867 18.3 10.7 16 18.3
2011-12-12 10:08:52 51°35.178 2°45.941 18.7 10.7 12 15.2
2011-12-12 10:09:52 51°35.35 2°46.021 18.5 10.8 17 17.3
2011-12-12 10:10:52 51°35.523 2°46.097 19 10.7 17 17.6
2011-12-12 10:11:52 51°35.692 2°46.197 29.1 10.8 27 17.8
2011-12-12 10:12:52 51°35.851 2°46.341 32.5 10.9 27 15.7
2011-12-12 10:13:52 51°36.007 2°46.485 32.8 10.7 27 16.6
2011-12-12 10:14:52 51°36.168 2°46.623 33 10.9 27 15.9
2011-12-12 10:15:52 51°36.331 2°46.749 27.7 10.9 32 18
2011-12-12 10:16:52 51°36.492 2°46.875 28.3 10.7 35 19.9
2011-12-12 10:17:52 51°36.652 2°47.005 29.9 10.9 26 18.2
2011-12-12 10:18:52 51°36.811 2°47.143 32.5 10.8 18 16
2011-12-12 10:19:52 51°36.975 2°47.255 27.2 10.8 22 18.2
2011-12-12 10:20:52 51°37.141 2°47.369 27.7 11 32 22.6
2011-12-12 10:21:52 51°37.313 2°47.462 22 11 17 20.1
2011-12-12 10:22:52 51°37.481 2°47.563 23 11 25 23.6
2011-12-12 10:23:52 51°37.651 2°47.664 26.2 11.2 19 23.7
2011-12-12 10:24:52 51°37.82 2°47.768 25.4 11 21 23.6
2011-12-12 10:25:52 51°37.985 2°47.886 29.6 10.9 26 22.9
2011-12-12 10:26:52 51°38.142 2°48.029 29.8 11 25 25.4
2011-12-12 10:27:53 51°38.307 2°48.161 26.9 11 24 19.9
2011-12-12 10:28:52 51°38.468 2°48.286 27.1 11.2 19 22.6
2011-12-12 10:29:52 51°38.634 2°48.399 22.8 11.1 23 29.6
2011-12-12 10:30:52 51°38.805 2°48.501 21.7 10.7 17 29.3
2011-12-12 10:31:52 51°38.971 2°48.606 23 10.7 25 31.2
2011-12-12 10:32:52 51°39.145 2°48.691 16.8 10.8 18 33.1
2011-12-12 10:33:52 51°39.318 2°48.767 17.5 10.7 16 32.1
2011-12-12 10:34:52 51°39.489 2°48.859 15.8 10.7 22 33.3
2011-12-12 10:35:52 51°39.662 2°48.941 16.3 10.8 15 32.7
2011-12-12 10:36:52 51°39.835 2°49.021 15.9 10.8 9 33.4
2011-12-12 10:37:52 51°40.007 2°49.112 20.7 11.1 19 33.5
2011-12-12 10:38:53 51°40.181 2°49.193 14.4 10.7 16 32.6
2011-12-12 10:39:52 51°40.347 2°49.292 20.4 10.9 21 33
2011-12-12 10:40:52 51°40.515 2°49.403 24.8 11 25 34.6
2011-12-12 10:41:53 51°40.686 2°49.518 21 10.8 15 34.2
2011-12-12 10:42:52 51°40.852 2°49.616 19.6 11 22 34.6
2011-12-12 10:43:52 51°41.024 2°49.719 20.7 11 20 34.7
2011-12-12 10:44:52 51°41.197 2°49.817 19.4 10.9 12 35.8
2011-12-12 10:45:52 51°41.369 2°49.915 20.3 10.9 22 36.2
2011-12-12 10:46:52 51°41.543 2°49.978 0.3 10.7 350 35.1
2011-12-12 10:47:52 51°41.7 2°49.85 320.8 10.9 315 32.8
2011-12-12 10:48:54 51°41.825 2°49.626 313.5 11 309 30.3
2011-12-12 10:49:53 51°41.939 2°49.411 313.6 10.9 309 30
2011-12-12 10:50:53 51°42.048 2°49.171 307.9 11.4 306 28
2011-12-12 10:51:54 51°42.158 2°48.926 310.7 11.2 304 28.4
2011-12-12 10:52:52 51°42.265 2°48.691 310 11.2 309 28
2011-12-12 10:53:54 51°42.375 2°48.455 301.4 10.1 297 32.8
2011-12-12 10:54:53 51°42.362 2°48.183 247.2 11.4 240 32.4
2011-12-12 10:55:54 51°42.204 2°48.028 198.2 11.9 195 30.6
2011-12-12 10:56:54 51°42.012 2°47.95 193.6 12.2 192 30.2
2011-12-12 10:57:52 51°41.821 2°47.877 193.2 12.4 193 33.9
2011-12-12 10:58:53 51°41.622 2°47.799 193.1 12.1 194 33.6
2011-12-12 10:59:54 51°41.424 2°47.721 197 11.8 194 -999
2011-12-12 11:00:53 51°41.236 2°47.643 195.3 12 194 32.9
2011-12-12 11:01:53 51°41.041 2°47.552 198 12.1 196 31.9
2011-12-12 11:02:52 51°40.851 2°47.445 199.6 12.3 199 32.4
2011-12-12 11:03:53 51°40.66 2°47.337 200.8 12 202 27.9
2011-12-12 11:04:52 51°40.474 2°47.233 201.6 12.3 196 33.2
2011-12-12 11:05:52 51°40.283 2°47.124 199.9 12.1 198 32.3
2011-12-12 11:06:53 51°40.098 2°47.016 203.1 11.9 203 34.9
2011-12-12 11:07:52 51°39.915 2°46.896 204 12.3 199 33.4
2011-12-12 11:08:53 51°39.721 2°46.775 203.3 12 201 33.9
2011-12-12 11:09:55 51°39.532 2°46.67 202 11.8 200 35
2011-12-12 11:10:54 51°39.346 2°46.562 202 11.9 200 33.7
2011-12-12 11:11:52 51°39.163 2°46.447 202.3 12.3 201 34.7
2011-12-12 11:12:56 51°38.968 2°46.337 200.3 11.1 202 -999
2011-12-12 11:13:54 51°38.789 2°46.235 202.2 12 200 35.6
2011-12-12 11:14:53 51°38.608 2°46.125 201.9 11.3 201 35.3
2011-12-12 11:15:52 51°38.428 2°46.019 202.4 11.8 201 35.3
2011-12-12 11:16:52 51°38.243 2°45.91 202.5 11.8 200 35
2011-12-12 11:17:52 51°38.057 2°45.802 202.5 12.2 201 36.7
2011-12-12 11:18:52 51°37.869 2°45.684 203.3 11.8 201 34.4
2011-12-12 11:19:53 51°37.679 2°45.573 200.9 11.6 200 -999
2011-12-12 11:20:52 51°37.497 2°45.468 202.5 11.9 197 38.1
2011-12-12 11:21:52 51°37.31 2°45.357 201.9 11.2 199 -999
2011-12-12 11:22:52 51°37.124 2°45.248 201.1 12.1 199 37.1
2011-12-12 11:23:52 51°36.933 2°45.142 200.8 12.2 200 38.2
2011-12-12 11:24:53 51°36.738 2°45.04 199.3 12.2 197 39.6
2011-12-12 11:25:52 51°36.556 2°44.946 199.9 11.8 197 40.4
2011-12-12 11:26:54 51°36.36 2°44.852 197.2 12.1 192 38.5
2011-12-12 11:27:53 51°36.176 2°44.755 200.5 11.6 196 39.2
2011-12-12 11:28:53 51°35.99 2°44.658 200.5 11.8 202 37.1
2011-12-12 11:29:52 51°35.806 2°44.561 200.6 12 196 36.3
2011-12-12 11:30:53 51°35.619 2°44.464 199.7 11.8 197 36.3
2011-12-12 11:31:52 51°35.436 2°44.368 201.2 11.7 198 35.9
2011-12-12 11:32:52 51°35.251 2°44.279 199.8 11.9 201 36.1
2011-12-12 11:33:53 51°35.062 2°44.182 201.9 11.7 198 37.2
2011-12-12 11:34:52 51°34.88 2°44.089 199.7 11.3 197 36.6
2011-12-12 11:35:54 51°34.693 2°43.998 201.6 10.9 199 36
2011-12-12 11:36:52 51°34.516 2°43.909 199.4 11.7 198 36.5
2011-12-12 11:37:52 51°34.332 2°43.818 200.8 11.4 198 32.8
2011-12-12 11:38:52 51°34.147 2°43.727 199.3 11.8 193 34.9
2011-12-12 11:39:52 51°33.966 2°43.636 200.7 11.5 198 33.7
2011-12-12 11:40:52 51°33.784 2°43.541 200.8 11.4 197 35
2011-12-12 11:41:52 51°33.603 2°43.456 200.7 11.5 195 33.8
2011-12-12 11:42:53 51°33.428 2°43.342 216.1 10.9 216 33.1
2011-12-12 11:43:52 51°33.321 2°43.122 236.1 10.2 233 -999
2011-12-12 11:44:53 51°33.22 2°42.894 237.7 10.8 237 33.1
2011-12-12 11:45:52 51°33.127 2°42.656 239.9 10.8 238 35.9
2011-12-12 11:46:53 51°33.035 2°42.41 241.1 10.5 239 32.2
2011-12-12 11:47:52 51°32.946 2°42.176 239.9 10.7 238 36.5
2011-12-12 11:48:52 51°32.851 2°41.93 239.6 10.8 239 37.3
2011-12-12 11:49:56 51°32.753 2°41.685 238.2 9.7 237 -999
2011-12-12 11:50:56 51°32.662 2°41.451 241.8 9.8 242 -999
2011-12-12 11:51:55 51°32.625 2°41.187 263.7 10.2 264 40.4
2011-12-12 11:52:52 51°32.671 2°40.939 302.6 10.5 309 39.2
2011-12-12 11:53:52 51°32.835 2°40.82 348.7 11.5 355 40.7
2011-12-12 11:54:52 51°33.028 2°40.889 13.9 12.2 19 41.4
2011-12-12 11:55:53 51°33.222 2°40.998 15.2 12.2 14 39.7
2011-12-12 11:56:52 51°33.408 2°41.109 16.5 12.1 22 41.5
2011-12-12 11:57:52 51°33.599 2°41.232 19.9 12.3 21 41.4
2011-12-12 11:58:53 51°33.791 2°41.358 19.5 12.4 20 42.1
2011-12-12 11:59:52 51°33.977 2°41.481 20.5 12.4 24 42.3
2011-12-12 12:00:53 51°34.167 2°41.62 21.9 12.3 26 42.3
2011-12-12 12:01:53 51°34.355 2°41.751 18.6 12.1 25 -999
2011-12-12 12:02:53 51°34.545 2°41.882 20.5 12.3 20 42.8
2011-12-12 12:03:52 51°34.734 2°42.007 17.8 12.4 20 42.5
2011-12-12 12:04:52 51°34.921 2°42.15 22.6 12.4 24 42.4
2011-12-12 12:05:52 51°35.113 2°42.27 13 12.4 18 43.4
2011-12-12 12:06:52 51°35.308 2°42.373 13.6 12.3 19 45.6
2011-12-12 12:07:52 51°35.504 2°42.484 16.6 12.5 18 43.3
2011-12-12 12:08:52 51°35.702 2°42.589 14.7 12.7 21 43.6
2011-12-12 12:09:53 51°35.901 2°42.705 16.8 12.6 19 42.7
2011-12-12 12:10:52 51°36.095 2°42.81 14.4 12.5 16 47.2
2011-12-12 12:11:53 51°36.297 2°42.905 8.9 12.3 13 43
2011-12-12 12:12:52 51°36.495 2°42.981 10.9 12.7 17 42.4
2011-12-12 12:13:52 51°36.695 2°43.062 12 12.3 16 39.3
2011-12-12 12:14:52 51°36.895 2°43.145 12.4 12.5 17 37.8
2011-12-12 12:15:52 51°37.095 2°43.223 9.5 12.4 16 41.2
2011-12-12 12:16:52 51°37.297 2°43.306 8.8 12.4 14 38
2011-12-12 12:17:52 51°37.5 2°43.381 10.7 12.7 16 39.1
2011-12-12 12:18:53 51°37.705 2°43.463 9.5 12.5 13 40
2011-12-12 12:19:52 51°37.904 2°43.539 12.4 12.9 15 37.4
2011-12-12 12:20:53 51°38.108 2°43.622 11.4 12.3 14 33.5
2011-12-12 12:21:53 51°38.308 2°43.692 5.2 12.2 9 36.3
2011-12-12 12:22:53 51°38.508 2°43.766 12.5 12.5 14 37.5
2011-12-12 12:23:52 51°38.708 2°43.851 10.5 12.7 16 40.1
2011-12-12 12:24:53 51°38.914 2°43.936 8.8 12.5 13 38.5
2011-12-12 12:25:52 51°39.114 2°44.017 12.9 12.8 14 41.7
2011-12-12 12:26:52 51°39.318 2°44.095 9 12.4 12 39.3
2011-12-12 12:27:53 51°39.525 2°44.176 11.1 12.7 14 38.1
2011-12-12 12:28:52 51°39.725 2°44.255 12.4 12.7 14 40.2
2011-12-12 12:29:53 51°39.935 2°44.324 10.1 12.5 9 35.4
2011-12-12 12:30:52 51°40.135 2°44.408 8.8 13 19 40.3
2011-12-12 12:31:53 51°40.343 2°44.508 16.8 12.8 21 38.5
2011-12-12 12:32:52 51°40.539 2°44.62 16.1 12.7 21 40
2011-12-12 12:33:52 51°40.742 2°44.732 16.8 12.8 19 41.6
2011-12-12 12:34:53 51°40.947 2°44.829 10.2 12.4 13 39.1
2011-12-12 12:35:52 51°41.146 2°44.93 14.3 12.5 18 38.7
2011-12-12 12:36:52 51°41.348 2°45.043 14 12.8 16 34.4
2011-12-12 12:37:52 51°41.549 2°45.153 15.8 12.8 17 40.7
2011-12-12 12:38:53 51°41.757 2°45.264 16.8 13.1 18 37.8
2011-12-12 12:39:52 51°41.957 2°45.367 15.9 12.6 10 40
2011-12-12 12:40:52 51°42.159 2°45.468 15.9 13 22 36.6
2011-12-12 12:41:52 51°42.363 2°45.581 14 12.4 8 42.9
2011-12-12 12:42:53 51°42.569 2°45.677 14.2 12.7 12 37.7
2011-12-12 12:43:53 51°42.772 2°45.783 16.6 13.1 17 38.4
2011-12-12 12:44:52 51°42.973 2°45.883 15.2 12.9 22 39.8
2011-12-12 12:45:52 51°43.179 2°45.993 14.5 12.6 14 37.9
2011-12-12 12:46:52 51°43.382 2°46.097 11.2 12.1 3 35.8
2011-12-12 12:47:54 51°43.539 2°45.967 303.7 10 310 38.2
2011-12-12 12:48:54 51°43.636 2°45.745 297.2 10.5 303 39.9
2011-12-12 12:49:54 51°43.741 2°45.52 303.3 10.2 307 34
2011-12-12 12:50:54 51°43.85 2°45.298 301.7 10.4 306 37.9
2011-12-12 12:51:52 51°43.957 2°45.077 302.7 10.9 308 39.7
2011-12-12 12:52:54 51°44.068 2°44.842 301.2 10.6 307 40.6
2011-12-12 12:53:53 51°44.176 2°44.625 303 10.5 307 37.2
2011-12-12 12:54:54 51°44.2 2°44.382 250 9.2 240 39.6
2011-12-12 12:55:52 51°44.059 2°44.293 199.7 10.1 195 41.6
2011-12-12 12:56:52 51°43.906 2°44.171 214.7 10.3 208 38.1
2011-12-12 12:57:53 51°43.744 2°44.073 203.3 9.8 192 -999
2011-12-12 12:58:53 51°43.582 2°44.003 202.6 10.4 198 40.8
2011-12-12 12:59:52 51°43.418 2°43.916 204.7 10.6 200 40.9
2011-12-12 13:00:53 51°43.248 2°43.833 202.3 10.4 196 38.5
2011-12-12 13:01:53 51°43.084 2°43.761 204.1 10 194 36.1
2011-12-12 13:02:52 51°42.923 2°43.686 203.3 10.5 199 41.2
2011-12-12 13:03:54 51°42.756 2°43.609 203.1 10.3 197 38.7
2011-12-12 13:04:56 51°42.591 2°43.535 204.2 9.8 192 39.4
2011-12-12 13:05:56 51°42.429 2°43.464 203.2 10.3 195 36.8
2011-12-12 13:06:54 51°42.27 2°43.384 205.3 10.4 197 36.9
2011-12-12 13:07:53 51°42.109 2°43.308 202.9 10.1 195 36.3
2011-12-12 13:08:53 51°41.943 2°43.235 202.9 10.4 196 33.6
2011-12-12 13:09:53 51°41.78 2°43.16 201.8 10 198 36.6
2011-12-12 13:10:53 51°41.614 2°43.085 203.5 10 195 38.6
2011-12-12 13:11:53 51°41.452 2°43.017 202.7 9.9 197 34.2
2011-12-12 13:12:53 51°41.29 2°42.945 203.8 10.2 197 38.8
2011-12-12 13:13:52 51°41.13 2°42.872 205.1 10.3 198 36.4
2011-12-12 13:14:53 51°40.964 2°42.797 202.2 9.9 197 37
2011-12-12 13:15:52 51°40.801 2°42.724 203.1 10.5 197 34.7
2011-12-12 13:16:52 51°40.637 2°42.641 204.3 10.6 195 35.1
2011-12-12 13:17:53 51°40.47 2°42.566 204.1 10.2 199 34.1
2011-12-12 13:18:53 51°40.306 2°42.489 202.7 10 197 34.8
2011-12-12 13:19:53 51°40.142 2°42.41 204.5 10.2 199 32.3
2011-12-12 13:20:53 51°39.984 2°42.329 206.7 9.6 201 31.9
2011-12-12 13:21:52 51°39.832 2°42.238 207.7 9.7 203 30.6
2011-12-12 13:22:53 51°39.675 2°42.147 204.8 10 197 28.1
2011-12-12 13:23:53 51°39.515 2°42.052 206.1 10.4 199 30.7
2011-12-12 13:24:52 51°39.357 2°41.96 206 10.1 201 28.7
2011-12-12 13:25:53 51°39.198 2°41.872 206.8 9.8 201 29
2011-12-12 13:26:52 51°39.044 2°41.781 206.7 10.3 202 25.8
2011-12-12 13:27:52 51°38.886 2°41.681 206.2 10.6 200 23.4
2011-12-12 13:28:53 51°38.727 2°41.594 207.1 9.9 200 23.6
2011-12-12 13:29:52 51°38.569 2°41.524 204.4 10 195 15.3
2011-12-12 13:30:52 51°38.416 2°41.433 209.1 10 203 23.5
2011-12-12 13:31:52 51°38.259 2°41.341 206.7 9.7 202 25.6
2011-12-12 13:32:52 51°38.103 2°41.252 205 9.8 198 27.5
2011-12-12 13:33:53 51°37.947 2°41.169 206.9 9.4 199 25.4
2011-12-12 13:34:52 51°37.795 2°41.076 206.9 9.9 202 22.7
2011-12-12 13:35:53 51°37.635 2°40.984 206.6 9.7 200 23.5
2011-12-12 13:36:54 51°37.481 2°40.906 206.2 9.9 200 24.6
2011-12-12 13:37:53 51°37.327 2°40.814 206.4 10.1 199 23.6
2011-12-12 13:38:53 51°37.171 2°40.723 205.6 9.9 202 23.6
2011-12-12 13:39:55 51°37.011 2°40.639 204.8 9.1 197 22.9
2011-12-12 13:40:55 51°36.865 2°40.554 206.5 9.4 202 24.5
2011-12-12 13:41:56 51°36.712 2°40.464 203.5 9.4 201 -999
2011-12-12 13:42:55 51°36.561 2°40.385 205.1 9.9 200 26
2011-12-12 13:43:55 51°36.405 2°40.305 204.2 9.7 194 27.3
2011-12-12 13:44:54 51°36.257 2°40.229 204.4 9.9 199 28.2
2011-12-12 13:45:53 51°36.104 2°40.138 204.7 9.6 198 -999
2011-12-12 13:46:53 51°35.948 2°40.059 203.9 10 198 29.3
2011-12-12 13:47:52 51°35.794 2°39.987 202.5 10 197 30.8
2011-12-12 13:48:52 51°35.636 2°39.9 203.1 9.9 200 30.6
2011-12-12 13:49:53 51°35.479 2°39.819 202.9 9.9 198 32.8
2011-12-12 13:50:53 51°35.322 2°39.73 201.9 9.9 199 34.1
2011-12-12 13:51:52 51°35.166 2°39.653 203.2 9.9 198 31.1
2011-12-12 13:52:54 51°35.007 2°39.568 204.6 9.3 198 -999
2011-12-12 13:53:54 51°34.852 2°39.488 203.7 10.1 200 30.8
2011-12-12 13:54:52 51°34.699 2°39.404 203.7 9.9 199 30.9
2011-12-12 13:55:53 51°34.542 2°39.321 203 9.6 195 -999
2011-12-12 13:56:52 51°34.39 2°39.237 204.1 9.8 200 27.3
2011-12-12 13:57:52 51°34.236 2°39.149 202.6 9.9 199 30.3
2011-12-12 13:58:52 51°34.079 2°39.064 203.5 9.9 200 28.9
2011-12-12 13:59:53 51°33.925 2°38.981 203.3 9.8 199 28
2011-12-12 14:00:53 51°33.769 2°38.896 201.7 10 199 26.1
2011-12-12 14:01:53 51°33.617 2°38.816 203.3 9.6 199 23.7
2011-12-12 14:02:53 51°33.463 2°38.729 204.8 9.9 197 27
2011-12-12 14:03:54 51°33.308 2°38.648 201.9 9.2 198 -999
2011-12-12 14:04:53 51°33.159 2°38.562 204 10.1 197 23.8
2011-12-12 14:05:52 51°33.003 2°38.476 202.7 10.1 201 22.8
2011-12-12 14:06:53 51°32.847 2°38.391 203.9 9.9 201 21.7
2011-12-12 14:07:52 51°32.696 2°38.309 204 10 199 21.8
2011-12-12 14:08:52 51°32.539 2°38.219 202.5 9.9 198 20.7
2011-12-12 14:09:52 51°32.382 2°38.137 201.9 9.8 197 18.8
2011-12-12 14:10:53 51°32.222 2°38.055 203.5 9.8 198 19.4
2011-12-12 14:11:53 51°32.067 2°37.98 201.4 9.6 194 18.1
2011-12-12 14:12:52 51°31.916 2°37.903 204.2 9.8 198 18.4
2011-12-12 14:13:53 51°31.76 2°37.815 203.8 9.5 199 18.3
2011-12-12 14:14:52 51°31.606 2°37.742 204.3 10 197 18.7
2011-12-12 14:15:53 51°31.451 2°37.668 202.3 9.9 198 19.3
2011-12-12 14:16:53 51°31.298 2°37.592 202.8 9.6 199 19.7
2011-12-12 14:17:53 51°31.148 2°37.509 203.3 9.6 198 20.9
2011-12-12 14:18:52 51°30.996 2°37.435 202.6 9.3 196 21.2
2011-12-12 14:19:52 51°30.844 2°37.355 205 9.7 201 21.8
2011-12-12 14:20:53 51°30.688 2°37.27 202.9 9.5 200 25.1
2011-12-12 14:21:53 51°30.537 2°37.19 203.4 9.9 200 26.3
2011-12-12 14:22:53 51°30.382 2°37.109 203.5 9.7 199 26.7
2011-12-12 14:23:52 51°30.231 2°37.028 204.1 9.6 198 26.9
2011-12-12 14:24:53 51°30.077 2°36.948 204.6 9.6 201 27.7
2011-12-12 14:25:52 51°29.929 2°36.866 203.3 9.4 198 27.3
2011-12-12 14:26:52 51°29.779 2°36.786 203.6 9.5 200 30.5
2011-12-12 14:27:53 51°29.624 2°36.708 201.7 9.8 196 28.4
2011-12-12 14:28:53 51°29.469 2°36.625 203.5 9.8 198 29.8
2011-12-12 14:29:53 51°29.317 2°36.534 204 9.8 200 29.2
2011-12-12 14:30:52 51°29.165 2°36.462 197.5 9.4 187 28.2
2011-12-12 14:31:53 51°29.001 2°36.57 152.9 11.7 143 28.6
2011-12-12 14:32:53 51°28.849 2°36.765 149.8 11.8 138 34.7
2011-12-12 14:33:53 51°28.696 2°36.953 151.3 11.6 146 38.5
2011-12-12 14:34:52 51°28.543 2°37.134 151.1 11.4 148 39.6
2011-12-12 14:35:53 51°28.386 2°37.323 145.3 11.8 145 40.3
2011-12-12 14:36:52 51°28.239 2°37.518 147.3 11.6 143 39.3
2011-12-12 14:37:53 51°28.086 2°37.716 147.4 11.5 145 39.5
2011-12-12 14:38:53 51°27.939 2°37.922 143.7 11.6 140 39.4
2011-12-12 14:39:52 51°27.794 2°38.124 147.2 11.8 140 35.2
2011-12-12 14:40:53 51°27.646 2°38.334 146.3 11.7 139 35.2
2011-12-12 14:41:53 51°27.5 2°38.54 145.8 11.9 140 36.3
2011-12-12 14:42:52 51°27.359 2°38.745 146.3 11.5 138 35.4
2011-12-12 14:43:52 51°27.215 2°38.952 143.6 11.6 138 37.3
2011-12-12 14:44:52 51°27.07 2°39.159 146.7 11.7 139 35.9
2011-12-12 14:45:53 51°26.924 2°39.374 144.5 11.7 137 34.9
2011-12-12 14:46:52 51°26.781 2°39.578 147.7 12.1 139 35.7
2011-12-12 14:47:53 51°26.633 2°39.787 146.4 11.6 138 35.4
2011-12-12 14:48:53 51°26.486 2°39.996 146.5 12.1 138 34.2
2011-12-12 14:49:52 51°26.347 2°40.208 141.2 12.1 130 34.8
2011-12-12 14:50:52 51°26.21 2°40.437 141.9 11.6 137 33.9
2011-12-12 14:51:53 51°26.064 2°40.661 142.5 11.8 139 32.9
2011-12-12 14:52:52 51°25.934 2°40.899 134.3 12.1 131 31.1
2011-12-12 14:53:53 51°25.806 2°41.153 135.3 11.8 132 31.1
2011-12-12 14:54:53 51°25.699 2°41.384 132.2 10.5 123 28.9
2011-12-12 14:55:53 51°25.597 2°41.605 132.7 10.2 126 30.1
2011-12-12 14:56:52 51°25.496 2°41.819 135.3 10.6 123 29.9
2011-12-12 14:57:52 51°25.395 2°42.035 134.7 10.4 124 26.6
2011-12-12 14:58:53 51°25.288 2°42.254 134.6 10 134 27.9
2011-12-12 14:59:52 51°25.178 2°42.5 132.2 12.5 122 24.9
2011-12-12 15:00:53 51°25.054 2°42.763 136.9 12.1 134 26.4
2011-12-12 15:01:52 51°24.916 2°42.986 141.6 12 135 26
2011-12-12 15:02:52 51°24.773 2°43.208 140.3 12 137 20.2
2011-12-12 15:03:53 51°24.626 2°43.436 144.1 12 138 26.7
2011-12-12 15:04:53 51°24.476 2°43.647 142.9 12.1 137 26.1
2011-12-12 15:05:53 51°24.327 2°43.858 145.3 12.1 138 23.6
2011-12-12 15:06:52 51°24.177 2°44.063 144.9 11.9 141 29.5
2011-12-12 15:07:53 51°24.022 2°44.277 144.9 12.2 137 28.6
2011-12-12 15:08:53 51°23.869 2°44.484 143.4 12.3 144 28
2011-12-12 15:09:53 51°23.717 2°44.695 145.9 12 142 29.8
2011-12-12 15:10:52 51°23.569 2°44.903 142.7 11.8 140 28.6
2011-12-12 15:11:52 51°23.42 2°45.115 143 12 138 30.4
2011-12-12 15:12:53 51°23.306 2°45.39 121.7 13 114 29.5
2011-12-12 15:13:53 51°23.206 2°45.678 123.5 11.9 129 28.2
2011-12-12 15:14:53 51°23.099 2°45.954 129.8 11.9 129 27.5
2011-12-12 15:15:52 51°22.99 2°46.225 127.9 12.4 121 27
2011-12-12 15:16:53 51°22.867 2°46.494 133.4 12.1 127 22.9
2011-12-12 15:17:53 51°22.739 2°46.741 141.2 12 140 24.1
2011-12-12 15:18:52 51°22.589 2°46.934 148.6 11.8 142 21.3
2011-12-12 15:19:52 51°22.426 2°47.11 150 11.7 147 21.5
2011-12-12 15:20:52 51°22.265 2°47.286 150.5 12 143 22.2
2011-12-12 15:21:53 51°22.1 2°47.471 148.1 12.1 143 26.3
2011-12-12 15:22:53 51°21.938 2°47.654 150.3 12 143 26.3
2011-12-12 15:23:52 51°21.778 2°47.836 149.4 12.1 142 25.4
2011-12-12 15:24:52 51°21.613 2°48.021 149.1 12 145 26.1
2011-12-12 15:25:53 51°21.444 2°48.202 151.1 11.7 148 24.8
2011-12-12 15:26:52 51°21.283 2°48.382 149.8 12.2 144 24.1
2011-12-12 15:27:53 51°21.118 2°48.57 147.8 12 142 22.6
2011-12-12 15:28:52 51°20.959 2°48.75 148.8 11.8 144 23.5
2011-12-12 15:29:52 51°20.799 2°48.937 149.1 12.1 146 25.1
2011-12-12 15:30:53 51°20.64 2°49.13 147.4 11.8 139 25.3
2011-12-12 15:31:52 51°20.481 2°49.309 149.6 12.2 142 25.5
2011-12-12 15:32:53 51°20.319 2°49.494 151.5 11.7 141 24
2011-12-12 15:33:53 51°20.156 2°49.672 149.8 11.7 147 21.6
2011-12-12 15:34:52 51°19.998 2°49.851 151.1 12 140 19
2011-12-12 15:35:52 51°19.839 2°50.036 149.1 11.7 144 17.3
2011-12-12 15:36:53 51°19.675 2°50.214 150.3 11.7 146 15.6
2011-12-12 15:37:52 51°19.515 2°50.385 150.7 11.6 145 14.1
2011-12-12 15:38:53 51°19.35 2°50.565 148.3 11.6 149 14.8
2011-12-12 15:39:52 51°19.19 2°50.738 150.2 12 146 16.6
2011-12-12 15:40:52 51°19.025 2°50.902 152.4 11.6 148 17.3
2011-12-12 15:41:53 51°18.855 2°51.067 150.5 11.9 148 16.7
2011-12-12 15:42:52 51°18.696 2°51.233 151.8 11.6 148 16
2011-12-12 15:43:53 51°18.523 2°51.384 159.3 11.4 151 15.7
2011-12-12 15:44:52 51°18.354 2°51.518 156.1 11.4 154 14.5
2011-12-12 15:45:53 51°18.177 2°51.649 156.9 11.3 157 13.6
2011-12-12 15:46:53 51°18.008 2°51.788 155.4 11.5 154 12.7
2011-12-12 15:47:52 51°17.842 2°51.928 154.3 11.8 154 12.5
2011-12-12 15:48:53 51°17.669 2°52.065 152.9 11.5 158 13
2011-12-12 15:49:53 51°17.499 2°52.197 157.7 11.4 157 13.3
2011-12-12 15:50:53 51°17.328 2°52.336 153.9 11.7 154 12.6
2011-12-12 15:51:52 51°17.16 2°52.469 154.9 11.4 153 11.8
2011-12-12 15:52:53 51°16.987 2°52.608 155.5 11.3 147 12
2011-12-12 15:53:52 51°16.818 2°52.74 155.9 11.5 154 11.5
2011-12-12 15:54:53 51°16.644 2°52.887 153.7 11.5 154 13.3
2011-12-12 15:55:53 51°16.466 2°53.014 159.6 11.9 156 13.7
2011-12-12 15:56:52 51°16.29 2°53.134 158 11.7 154 14
2011-12-12 15:57:53 51°16.107 2°53.262 157.1 11.7 157 13.7
2011-12-12 15:58:52 51°15.935 2°53.396 153.7 11.6 152 14.1
2011-12-12 15:59:53 51°15.767 2°53.567 144.5 11.6 144 14
2011-12-12 16:00:53 51°15.614 2°53.769 138.5 12.1 138 13.6
2011-12-12 16:01:53 51°15.462 2°53.971 140.7 11.9 140 13.5
2011-12-12 16:02:52 51°15.311 2°54.166 142.1 12.3 141 12.6
2011-12-12 16:03:52 51°15.155 2°54.358 141.3 11.9 141 12.2
2011-12-12 16:04:53 51°14.999 2°54.556 142.3 12 140 12.2
2011-12-12 16:05:53 51°14.839 2°54.742 145.5 12 143 12.7
2011-12-12 16:06:53 51°14.677 2°54.919 147.3 11.9 146 13.4
2011-12-12 16:07:52 51°14.512 2°55.077 149.5 11.6 150 13
2011-12-12 16:08:54 51°14.339 2°55.244 148.9 11.8 149 -999
2011-12-12 16:09:54 51°14.193 2°55.369 152.3 8.4 154 12.2
2011-12-12 16:10:54 51°14.071 2°55.459 155.4 8 155 12.2
2011-12-12 16:11:53 51°13.953 2°55.542 155.4 7.6 156 12.6
2011-12-12 16:12:53 51°13.836 2°55.626 155.4 7.9 155 13.4
2011-12-12 16:13:53 51°13.744 2°55.732 132.5 5.8 132 12.8
2011-12-12 16:14:56 51°13.69 2°55.846 125 4.7 124 -999
2011-12-12 16:15:56 51°13.655 2°55.94 114.9 3.8 113 -999
2011-12-12 16:16:56 51°13.639 2°56.011 112.3 1.6 107 10.2